Terminal Aerodrome Forecast
Issued by NWS Tallahassee, FL

Home | Current Version | Previous Version | Text Only | Print | Product List | Glossary On
Versions: 1 2 3 4 5 6 7 8 9 10 11 12 13 14 15 16
000
FTUS42 KTAE 160500
TAFTLH
TAF
KTLH 160520Z 1606/1706 36008KT P6SM SCT250
     FM161400 06010G18KT P6SM SKC
     FM162300 08006KT P6SM FEW045 SCT250=

USA.gov is the U.S. government's official web portal to all federal, state and local government web resources and services.